sensor_id;sensor_type;location;lat;lon;timestamp;P1;durP1;ratioP1;P2;durP2;ratioP2
52816;SDS011;38687;43.330;21.924;2024-02-23T00:00:44;60.45;;;29.25;;
52816;SDS011;38687;43.330;21.924;2024-02-23T00:03:10;60.78;;;28.77;;
52816;SDS011;38687;43.330;21.924;2024-02-23T00:05:35;81.95;;;49.17;;
52816;SDS011;38687;43.330;21.924;2024-02-23T00:08:01;57.28;;;26.60;;
52816;SDS011;38687;43.330;21.924;2024-02-23T00:10:26;47.60;;;22.17;;
52816;SDS011;38687;43.330;21.924;2024-02-23T00:12:51;50.78;;;34.97;;
52816;SDS011;38687;43.330;21.924;2024-02-23T00:15:16;39.40;;;20.80;;
52816;SDS011;38687;43.330;21.924;2024-02-23T00:17:42;43.53;;;19.80;;
52816;SDS011;38687;43.330;21.924;2024-02-23T00:20:08;31.92;;;15.73;;
52816;SDS011;38687;43.330;21.924;2024-02-23T00:22:35;42.03;;;19.65;;
52816;SDS011;38687;43.330;21.924;2024-02-23T00:25:01;41.72;;;18.85;;
52816;SDS011;38687;43.330;21.924;2024-02-23T00:27:26;70.88;;;37.42;;
52816;SDS011;38687;43.330;21.924;2024-02-23T00:29:51;43.05;;;18.83;;
52816;SDS011;38687;43.330;21.924;2024-02-23T00:32:16;113.47;;;44.42;;
52816;SDS011;38687;43.330;21.924;2024-02-23T00:34:42;55.95;;;22.42;;
52816;SDS011;38687;43.330;21.924;2024-02-23T00:37:07;44.30;;;27.10;;
52816;SDS011;38687;43.330;21.924;2024-02-23T00:39:33;42.42;;;15.50;;
52816;SDS011;38687;43.330;21.924;2024-02-23T00:41:58;44.72;;;28.10;;
52816;SDS011;38687;43.330;21.924;2024-02-23T00:44:23;33.15;;;14.48;;
52816;SDS011;38687;43.330;21.924;2024-02-23T00:46:49;25.67;;;14.02;;
52816;SDS011;38687;43.330;21.924;2024-02-23T00:49:14;35.78;;;15.18;;
52816;SDS011;38687;43.330;21.924;2024-02-23T00:51:39;42.42;;;16.35;;
52816;SDS011;38687;43.330;21.924;2024-02-23T00:54:04;28.38;;;16.00;;
52816;SDS011;38687;43.330;21.924;2024-02-23T00:56:30;34.30;;;14.63;;
52816;SDS011;38687;43.330;21.924;2024-02-23T00:58:55;34.50;;;15.68;;
52816;SDS011;38687;43.330;21.924;2024-02-23T01:01:20;31.50;;;14.38;;
52816;SDS011;38687;43.330;21.924;2024-02-23T01:03:46;41.95;;;17.42;;
52816;SDS011;38687;43.330;21.924;2024-02-23T01:06:11;48.80;;;30.70;;
52816;SDS011;38687;43.330;21.924;2024-02-23T01:08:36;35.10;;;24.00;;
52816;SDS011;38687;43.330;21.924;2024-02-23T01:11:03;24.80;;;12.40;;
52816;SDS011;38687;43.330;21.924;2024-02-23T01:13:28;26.13;;;18.55;;
52816;SDS011;38687;43.330;21.924;2024-02-23T01:15:53;10.77;;;6.18;;
52816;SDS011;38687;43.330;21.924;2024-02-23T01:18:19;16.15;;;12.07;;
52816;SDS011;38687;43.330;21.924;2024-02-23T01:20:44;16.20;;;13.25;;
52816;SDS011;38687;43.330;21.924;2024-02-23T01:23:09;15.52;;;12.27;;
52816;SDS011;38687;43.330;21.924;2024-02-23T01:25:35;12.40;;;6.55;;
52816;SDS011;38687;43.330;21.924;2024-02-23T01:28:00;9.88;;;6.05;;
52816;SDS011;38687;43.330;21.924;2024-02-23T01:30:25;9.68;;;5.15;;
52816;SDS011;38687;43.330;21.924;2024-02-23T01:32:50;9.20;;;5.28;;
52816;SDS011;38687;43.330;21.924;2024-02-23T01:35:16;9.57;;;5.93;;
52816;SDS011;38687;43.330;21.924;2024-02-23T01:37:41;11.25;;;7.28;;
52816;SDS011;38687;43.330;21.924;2024-02-23T01:40:07;19.42;;;15.07;;
52816;SDS011;38687;43.330;21.924;2024-02-23T01:42:32;21.30;;;10.98;;
52816;SDS011;38687;43.330;21.924;2024-02-23T01:44:57;35.58;;;13.63;;
52816;SDS011;38687;43.330;21.924;2024-02-23T01:47:26;38.05;;;13.55;;
52816;SDS011;38687;43.330;21.924;2024-02-23T01:49:51;29.55;;;20.38;;
52816;SDS011;38687;43.330;21.924;2024-02-23T01:52:17;29.75;;;19.40;;
52816;SDS011;38687;43.330;21.924;2024-02-23T01:54:43;25.02;;;12.25;;
52816;SDS011;38687;43.330;21.924;2024-02-23T01:57:08;34.65;;;14.10;;
52816;SDS011;38687;43.330;21.924;2024-02-23T01:59:34;59.63;;;28.25;;
52816;SDS011;38687;43.330;21.924;2024-02-23T02:02:02;24.58;;;11.27;;
52816;SDS011;38687;43.330;21.924;2024-02-23T02:04:28;32.25;;;12.40;;
52816;SDS011;38687;43.330;21.924;2024-02-23T02:06:54;35.42;;;20.48;;
52816;SDS011;38687;43.330;21.924;2024-02-23T02:09:19;31.48;;;18.83;;
52816;SDS011;38687;43.330;21.924;2024-02-23T02:11:47;31.65;;;19.88;;
52816;SDS011;38687;43.330;21.924;2024-02-23T02:14:12;27.63;;;11.55;;
52816;SDS011;38687;43.330;21.924;2024-02-23T02:16:38;37.17;;;23.73;;
52816;SDS011;38687;43.330;21.924;2024-02-23T02:19:03;27.70;;;11.63;;
52816;SDS011;38687;43.330;21.924;2024-02-23T02:21:28;26.90;;;13.02;;
52816;SDS011;38687;43.330;21.924;2024-02-23T02:23:54;32.35;;;12.38;;
52816;SDS011;38687;43.330;21.924;2024-02-23T02:26:19;36.42;;;14.75;;
52816;SDS011;38687;43.330;21.924;2024-02-23T02:28:44;36.20;;;17.15;;
52816;SDS011;38687;43.330;21.924;2024-02-23T02:31:09;45.67;;;28.52;;
52816;SDS011;38687;43.330;21.924;2024-02-23T02:33:35;46.85;;;27.55;;
52816;SDS011;38687;43.330;21.924;2024-02-23T02:36:00;28.23;;;13.82;;
52816;SDS011;38687;43.330;21.924;2024-02-23T02:38:25;29.65;;;13.98;;
52816;SDS011;38687;43.330;21.924;2024-02-23T02:40:51;45.97;;;26.75;;
52816;SDS011;38687;43.330;21.924;2024-02-23T02:43:16;26.27;;;12.50;;
52816;SDS011;38687;43.330;21.924;2024-02-23T02:45:41;16.52;;;8.70;;
52816;SDS011;38687;43.330;21.924;2024-02-23T02:48:07;21.00;;;9.20;;
52816;SDS011;38687;43.330;21.924;2024-02-23T02:50:32;34.95;;;13.48;;
52816;SDS011;38687;43.330;21.924;2024-02-23T02:52:57;34.75;;;19.70;;
52816;SDS011;38687;43.330;21.924;2024-02-23T02:55:23;32.13;;;13.05;;
52816;SDS011;38687;43.330;21.924;2024-02-23T02:57:48;28.52;;;16.92;;
52816;SDS011;38687;43.330;21.924;2024-02-23T03:00:13;14.50;;;8.38;;
52816;SDS011;38687;43.330;21.924;2024-02-23T03:02:38;17.65;;;8.48;;
52816;SDS011;38687;43.330;21.924;2024-02-23T03:05:04;20.90;;;10.80;;
52816;SDS011;38687;43.330;21.924;2024-02-23T03:07:29;34.42;;;20.08;;
52816;SDS011;38687;43.330;21.924;2024-02-23T03:09:55;16.50;;;7.85;;
52816;SDS011;38687;43.330;21.924;2024-02-23T03:12:20;13.10;;;7.95;;
52816;SDS011;38687;43.330;21.924;2024-02-23T03:14:46;17.58;;;8.48;;
52816;SDS011;38687;43.330;21.924;2024-02-23T03:17:11;19.35;;;9.13;;
52816;SDS011;38687;43.330;21.924;2024-02-23T03:19:36;19.40;;;9.75;;
52816;SDS011;38687;43.330;21.924;2024-02-23T03:22:02;19.58;;;9.00;;
52816;SDS011;38687;43.330;21.924;2024-02-23T03:24:27;25.08;;;16.33;;
52816;SDS011;38687;43.330;21.924;2024-02-23T03:26:52;25.30;;;10.18;;
52816;SDS011;38687;43.330;21.924;2024-02-23T03:29:18;16.70;;;8.75;;
52816;SDS011;38687;43.330;21.924;2024-02-23T03:31:43;18.45;;;9.32;;
52816;SDS011;38687;43.330;21.924;2024-02-23T03:34:09;15.23;;;8.60;;
52816;SDS011;38687;43.330;21.924;2024-02-23T03:36:34;13.15;;;7.13;;
52816;SDS011;38687;43.330;21.924;2024-02-23T03:39:00;18.77;;;8.35;;
52816;SDS011;38687;43.330;21.924;2024-02-23T03:41:25;18.52;;;8.43;;
52816;SDS011;38687;43.330;21.924;2024-02-23T03:43:51;19.98;;;9.93;;
52816;SDS011;38687;43.330;21.924;2024-02-23T03:46:16;16.42;;;9.32;;
52816;SDS011;38687;43.330;21.924;2024-02-23T03:48:42;23.25;;;11.13;;
52816;SDS011;38687;43.330;21.924;2024-02-23T03:51:08;29.23;;;13.25;;
52816;SDS011;38687;43.330;21.924;2024-02-23T03:53:33;27.40;;;19.40;;
52816;SDS011;38687;43.330;21.924;2024-02-23T03:55:59;26.73;;;11.10;;
52816;SDS011;38687;43.330;21.924;2024-02-23T03:58:24;18.20;;;9.13;;
52816;SDS011;38687;43.330;21.924;2024-02-23T04:00:49;14.30;;;8.13;;
52816;SDS011;38687;43.330;21.924;2024-02-23T04:03:15;9.63;;;5.55;;
52816;SDS011;38687;43.330;21.924;2024-02-23T04:05:40;11.98;;;8.70;;
52816;SDS011;38687;43.330;21.924;2024-02-23T04:08:05;5.80;;;4.28;;
52816;SDS011;38687;43.330;21.924;2024-02-23T04:10:31;9.02;;;4.32;;
52816;SDS011;38687;43.330;21.924;2024-02-23T04:12:57;6.38;;;4.05;;
52816;SDS011;38687;43.330;21.924;2024-02-23T04:15:22;7.38;;;6.65;;
52816;SDS011;38687;43.330;21.924;2024-02-23T04:17:48;6.13;;;4.28;;
52816;SDS011;38687;43.330;21.924;2024-02-23T04:20:13;6.43;;;5.82;;
52816;SDS011;38687;43.330;21.924;2024-02-23T04:22:38;5.07;;;3.63;;
52816;SDS011;38687;43.330;21.924;2024-02-23T04:25:04;8.65;;;5.65;;
52816;SDS011;38687;43.330;21.924;2024-02-23T04:27:31;15.13;;;9.02;;
52816;SDS011;38687;43.330;21.924;2024-02-23T04:29:56;15.15;;;9.23;;
52816;SDS011;38687;43.330;21.924;2024-02-23T04:32:21;17.38;;;9.32;;
52816;SDS011;38687;43.330;21.924;2024-02-23T04:34:47;18.95;;;14.00;;
52816;SDS011;38687;43.330;21.924;2024-02-23T04:37:12;22.10;;;14.20;;
52816;SDS011;38687;43.330;21.924;2024-02-23T04:39:37;31.75;;;13.15;;
52816;SDS011;38687;43.330;21.924;2024-02-23T04:42:03;25.63;;;10.98;;
52816;SDS011;38687;43.330;21.924;2024-02-23T04:44:29;25.95;;;10.20;;
52816;SDS011;38687;43.330;21.924;2024-02-23T04:46:54;23.75;;;9.80;;
52816;SDS011;38687;43.330;21.924;2024-02-23T04:49:19;20.83;;;10.38;;
52816;SDS011;38687;43.330;21.924;2024-02-23T04:51:45;26.80;;;19.70;;
52816;SDS011;38687;43.330;21.924;2024-02-23T04:54:10;38.72;;;27.98;;
52816;SDS011;38687;43.330;21.924;2024-02-23T04:56:35;33.42;;;15.10;;
52816;SDS011;38687;43.330;21.924;2024-02-23T04:59:01;41.72;;;18.52;;
52816;SDS011;38687;43.330;21.924;2024-02-23T05:01:26;47.28;;;29.83;;
52816;SDS011;38687;43.330;21.924;2024-02-23T05:03:51;31.25;;;15.38;;
52816;SDS011;38687;43.330;21.924;2024-02-23T05:06:17;43.20;;;18.30;;
52816;SDS011;38687;43.330;21.924;2024-02-23T05:08:42;45.90;;;31.25;;
52816;SDS011;38687;43.330;21.924;2024-02-23T05:11:07;34.63;;;18.73;;
52816;SDS011;38687;43.330;21.924;2024-02-23T05:13:33;36.75;;;17.80;;
52816;SDS011;38687;43.330;21.924;2024-02-23T05:15:58;37.72;;;17.92;;
52816;SDS011;38687;43.330;21.924;2024-02-23T05:18:23;45.63;;;30.77;;
52816;SDS011;38687;43.330;21.924;2024-02-23T05:20:48;37.72;;;18.38;;
52816;SDS011;38687;43.330;21.924;2024-02-23T05:23:14;31.58;;;16.98;;
52816;SDS011;38687;43.330;21.924;2024-02-23T05:25:41;35.97;;;18.60;;
52816;SDS011;38687;43.330;21.924;2024-02-23T05:28:06;34.25;;;19.65;;
52816;SDS011;38687;43.330;21.924;2024-02-23T05:30:31;43.75;;;21.40;;
52816;SDS011;38687;43.330;21.924;2024-02-23T05:32:57;39.60;;;20.92;;
52816;SDS011;38687;43.330;21.924;2024-02-23T05:35:23;33.55;;;18.08;;
52816;SDS011;38687;43.330;21.924;2024-02-23T05:37:48;34.20;;;17.05;;
52816;SDS011;38687;43.330;21.924;2024-02-23T05:40:15;43.20;;;20.42;;
52816;SDS011;38687;43.330;21.924;2024-02-23T05:42:40;33.97;;;20.35;;
52816;SDS011;38687;43.330;21.924;2024-02-23T05:45:08;28.77;;;14.80;;
52816;SDS011;38687;43.330;21.924;2024-02-23T05:47:34;28.95;;;16.30;;
52816;SDS011;38687;43.330;21.924;2024-02-23T05:50:00;23.38;;;19.60;;
52816;SDS011;38687;43.330;21.924;2024-02-23T05:52:25;11.10;;;7.85;;
52816;SDS011;38687;43.330;21.924;2024-02-23T05:54:50;12.13;;;7.20;;
52816;SDS011;38687;43.330;21.924;2024-02-23T05:57:17;11.15;;;6.63;;
52816;SDS011;38687;43.330;21.924;2024-02-23T05:59:42;7.57;;;5.53;;
52816;SDS011;38687;43.330;21.924;2024-02-23T06:02:07;10.07;;;5.60;;
52816;SDS011;38687;43.330;21.924;2024-02-23T06:04:32;8.50;;;6.65;;
52816;SDS011;38687;43.330;21.924;2024-02-23T06:06:58;13.77;;;6.63;;
52816;SDS011;38687;43.330;21.924;2024-02-23T06:09:23;11.07;;;7.18;;
52816;SDS011;38687;43.330;21.924;2024-02-23T06:11:48;10.05;;;8.50;;
52816;SDS011;38687;43.330;21.924;2024-02-23T06:14:14;9.18;;;5.97;;
52816;SDS011;38687;43.330;21.924;2024-02-23T06:16:39;13.25;;;10.05;;
52816;SDS011;38687;43.330;21.924;2024-02-23T06:19:05;10.40;;;9.40;;
52816;SDS011;38687;43.330;21.924;2024-02-23T06:21:30;8.88;;;5.15;;
52816;SDS011;38687;43.330;21.924;2024-02-23T06:23:56;14.80;;;11.48;;
52816;SDS011;38687;43.330;21.924;2024-02-23T06:26:22;13.07;;;9.32;;
52816;SDS011;38687;43.330;21.924;2024-02-23T06:28:47;12.23;;;10.60;;
52816;SDS011;38687;43.330;21.924;2024-02-23T06:31:14;13.35;;;11.05;;
52816;SDS011;38687;43.330;21.924;2024-02-23T06:33:39;13.48;;;11.05;;
52816;SDS011;38687;43.330;21.924;2024-02-23T06:36:06;14.32;;;11.77;;
52816;SDS011;38687;43.330;21.924;2024-02-23T06:38:31;17.63;;;15.65;;
52816;SDS011;38687;43.330;21.924;2024-02-23T06:40:56;16.08;;;13.73;;
52816;SDS011;38687;43.330;21.924;2024-02-23T06:43:22;22.58;;;19.48;;
52816;SDS011;38687;43.330;21.924;2024-02-23T06:45:47;41.53;;;32.97;;
52816;SDS011;38687;43.330;21.924;2024-02-23T06:48:12;50.60;;;26.90;;
52816;SDS011;38687;43.330;21.924;2024-02-23T06:50:38;52.33;;;39.78;;
52816;SDS011;38687;43.330;21.924;2024-02-23T06:53:03;71.30;;;51.50;;
52816;SDS011;38687;43.330;21.924;2024-02-23T06:55:28;83.20;;;56.60;;
52816;SDS011;38687;43.330;21.924;2024-02-23T06:57:54;73.40;;;52.20;;
52816;SDS011;38687;43.330;21.924;2024-02-23T07:00:20;86.10;;;59.63;;
52816;SDS011;38687;43.330;21.924;2024-02-23T07:02:46;57.25;;;42.50;;
52816;SDS011;38687;43.330;21.924;2024-02-23T07:05:11;57.50;;;42.60;;
52816;SDS011;38687;43.330;21.924;2024-02-23T07:07:37;34.83;;;27.13;;
52816;SDS011;38687;43.330;21.924;2024-02-23T07:10:02;32.17;;;15.02;;
52816;SDS011;38687;43.330;21.924;2024-02-23T07:12:27;37.38;;;28.10;;
52816;SDS011;38687;43.330;21.924;2024-02-23T07:14:58;25.23;;;19.90;;
52816;SDS011;38687;43.330;21.924;2024-02-23T07:17:23;10.07;;;9.05;;
52816;SDS011;38687;43.330;21.924;2024-02-23T07:19:49;14.18;;;8.88;;
52816;SDS011;38687;43.330;21.924;2024-02-23T07:22:15;14.93;;;10.45;;
52816;SDS011;38687;43.330;21.924;2024-02-23T07:24:43;16.75;;;14.32;;
52816;SDS011;38687;43.330;21.924;2024-02-23T07:27:08;12.70;;;8.52;;
52816;SDS011;38687;43.330;21.924;2024-02-23T07:29:33;9.63;;;7.20;;
52816;SDS011;38687;43.330;21.924;2024-02-23T07:31:59;9.02;;;7.68;;
52816;SDS011;38687;43.330;21.924;2024-02-23T07:34:24;8.10;;;5.78;;
52816;SDS011;38687;43.330;21.924;2024-02-23T07:36:52;9.23;;;8.25;;
52816;SDS011;38687;43.330;21.924;2024-02-23T07:39:18;5.80;;;5.28;;
52816;SDS011;38687;43.330;21.924;2024-02-23T07:41:43;8.77;;;7.60;;
52816;SDS011;38687;43.330;21.924;2024-02-23T07:44:09;6.10;;;5.53;;
52816;SDS011;38687;43.330;21.924;2024-02-23T07:46:34;5.68;;;5.03;;
52816;SDS011;38687;43.330;21.924;2024-02-23T07:48:59;7.47;;;6.45;;
52816;SDS011;38687;43.330;21.924;2024-02-23T07:51:24;6.13;;;5.53;;
52816;SDS011;38687;43.330;21.924;2024-02-23T07:53:50;5.50;;;5.00;;
52816;SDS011;38687;43.330;21.924;2024-02-23T07:56:15;8.65;;;6.00;;
52816;SDS011;38687;43.330;21.924;2024-02-23T07:58:42;7.68;;;5.53;;
52816;SDS011;38687;43.330;21.924;2024-02-23T08:01:07;4.97;;;4.57;;
52816;SDS011;38687;43.330;21.924;2024-02-23T08:03:32;8.52;;;6.80;;
52816;SDS011;38687;43.330;21.924;2024-02-23T08:05:57;9.57;;;7.35;;
52816;SDS011;38687;43.330;21.924;2024-02-23T08:08:23;6.35;;;5.75;;
52816;SDS011;38687;43.330;21.924;2024-02-23T08:10:48;7.80;;;6.53;;
52816;SDS011;38687;43.330;21.924;2024-02-23T08:13:14;7.07;;;6.22;;
52816;SDS011;38687;43.330;21.924;2024-02-23T08:15:40;9.23;;;8.07;;
52816;SDS011;38687;43.330;21.924;2024-02-23T08:18:05;6.38;;;5.32;;
52816;SDS011;38687;43.330;21.924;2024-02-23T08:20:31;4.60;;;4.13;;
52816;SDS011;38687;43.330;21.924;2024-02-23T08:22:56;5.25;;;4.75;;
52816;SDS011;38687;43.330;21.924;2024-02-23T08:25:21;5.18;;;4.75;;
52816;SDS011;38687;43.330;21.924;2024-02-23T08:27:46;5.65;;;5.13;;
52816;SDS011;38687;43.330;21.924;2024-02-23T08:30:13;6.45;;;5.50;;
52816;SDS011;38687;43.330;21.924;2024-02-23T08:32:38;5.97;;;5.38;;
52816;SDS011;38687;43.330;21.924;2024-02-23T08:35:04;7.63;;;5.57;;
52816;SDS011;38687;43.330;21.924;2024-02-23T08:37:29;5.95;;;5.32;;
52816;SDS011;38687;43.330;21.924;2024-02-23T08:39:54;4.43;;;4.03;;
52816;SDS011;38687;43.330;21.924;2024-02-23T08:42:20;16.17;;;12.32;;
52816;SDS011;38687;43.330;21.924;2024-02-23T08:44:45;6.20;;;5.15;;
52816;SDS011;38687;43.330;21.924;2024-02-23T08:47:11;6.10;;;5.35;;
52816;SDS011;38687;43.330;21.924;2024-02-23T08:49:37;6.65;;;5.95;;
52816;SDS011;38687;43.330;21.924;2024-02-23T08:52:02;5.32;;;4.35;;
52816;SDS011;38687;43.330;21.924;2024-02-23T08:54:29;4.75;;;4.25;;
52816;SDS011;38687;43.330;21.924;2024-02-23T08:56:54;6.22;;;5.38;;
52816;SDS011;38687;43.330;21.924;2024-02-23T08:59:19;5.60;;;4.68;;
52816;SDS011;38687;43.330;21.924;2024-02-23T09:01:45;5.28;;;4.78;;
52816;SDS011;38687;43.330;21.924;2024-02-23T09:04:12;6.45;;;5.45;;
52816;SDS011;38687;43.330;21.924;2024-02-23T09:06:37;4.57;;;4.18;;
52816;SDS011;38687;43.330;21.924;2024-02-23T09:09:02;6.57;;;5.72;;
52816;SDS011;38687;43.330;21.924;2024-02-23T09:11:27;9.05;;;7.43;;
52816;SDS011;38687;43.330;21.924;2024-02-23T09:13:53;11.35;;;6.68;;
52816;SDS011;38687;43.330;21.924;2024-02-23T09:16:18;6.38;;;5.78;;
52816;SDS011;38687;43.330;21.924;2024-02-23T09:18:44;8.98;;;7.20;;
52816;SDS011;38687;43.330;21.924;2024-02-23T09:21:09;12.80;;;9.15;;
52816;SDS011;38687;43.330;21.924;2024-02-23T09:23:34;9.90;;;6.90;;
52816;SDS011;38687;43.330;21.924;2024-02-23T09:26:00;6.88;;;6.07;;
52816;SDS011;38687;43.330;21.924;2024-02-23T09:28:25;6.20;;;5.60;;
52816;SDS011;38687;43.330;21.924;2024-02-23T09:30:51;6.05;;;4.65;;
52816;SDS011;38687;43.330;21.924;2024-02-23T09:33:16;7.18;;;5.95;;
52816;SDS011;38687;43.330;21.924;2024-02-23T09:35:41;5.95;;;5.03;;
52816;SDS011;38687;43.330;21.924;2024-02-23T09:38:07;7.28;;;5.47;;
52816;SDS011;38687;43.330;21.924;2024-02-23T09:40:32;5.20;;;4.70;;
52816;SDS011;38687;43.330;21.924;2024-02-23T09:42:57;6.35;;;5.25;;
52816;SDS011;38687;43.330;21.924;2024-02-23T09:45:27;4.45;;;3.95;;
52816;SDS011;38687;43.330;21.924;2024-02-23T09:47:56;5.10;;;4.60;;
52816;SDS011;38687;43.330;21.924;2024-02-23T09:50:22;7.25;;;6.30;;
52816;SDS011;38687;43.330;21.924;2024-02-23T09:52:47;5.15;;;4.57;;
52816;SDS011;38687;43.330;21.924;2024-02-23T09:55:15;5.43;;;4.93;;
52816;SDS011;38687;43.330;21.924;2024-02-23T09:57:41;6.15;;;5.15;;
52816;SDS011;38687;43.330;21.924;2024-02-23T10:00:07;4.90;;;4.32;;
52816;SDS011;38687;43.330;21.924;2024-02-23T10:02:34;7.47;;;5.90;;
52816;SDS011;38687;43.330;21.924;2024-02-23T10:04:59;9.10;;;5.70;;
52816;SDS011;38687;43.330;21.924;2024-02-23T10:07:25;6.40;;;4.78;;
52816;SDS011;38687;43.330;21.924;2024-02-23T10:09:50;6.35;;;5.55;;
52816;SDS011;38687;43.330;21.924;2024-02-23T10:12:16;5.75;;;5.15;;
52816;SDS011;38687;43.330;21.924;2024-02-23T10:14:41;4.32;;;3.70;;
52816;SDS011;38687;43.330;21.924;2024-02-23T10:17:06;6.93;;;4.47;;
52816;SDS011;38687;43.330;21.924;2024-02-23T10:19:33;6.45;;;4.90;;
52816;SDS011;38687;43.330;21.924;2024-02-23T10:21:58;6.93;;;5.22;;
52816;SDS011;38687;43.330;21.924;2024-02-23T10:24:24;6.47;;;5.72;;
52816;SDS011;38687;43.330;21.924;2024-02-23T10:26:53;8.43;;;6.00;;
52816;SDS011;38687;43.330;21.924;2024-02-23T10:29:18;8.68;;;6.13;;
52816;SDS011;38687;43.330;21.924;2024-02-23T10:31:44;7.05;;;6.30;;
52816;SDS011;38687;43.330;21.924;2024-02-23T10:34:12;9.15;;;8.00;;
52816;SDS011;38687;43.330;21.924;2024-02-23T10:36:42;5.13;;;4.05;;
52816;SDS011;38687;43.330;21.924;2024-02-23T10:39:07;5.63;;;5.13;;
52816;SDS011;38687;43.330;21.924;2024-02-23T10:41:34;8.85;;;7.63;;
52816;SDS011;38687;43.330;21.924;2024-02-23T10:44:00;7.70;;;6.80;;
52816;SDS011;38687;43.330;21.924;2024-02-23T10:46:26;6.05;;;5.45;;
52816;SDS011;38687;43.330;21.924;2024-02-23T10:48:51;4.32;;;3.53;;
52816;SDS011;38687;43.330;21.924;2024-02-23T10:51:19;5.25;;;4.22;;
52816;SDS011;38687;43.330;21.924;2024-02-23T10:53:44;4.78;;;4.28;;
52816;SDS011;38687;43.330;21.924;2024-02-23T10:56:11;4.72;;;4.05;;
52816;SDS011;38687;43.330;21.924;2024-02-23T10:58:36;5.80;;;5.20;;
52816;SDS011;38687;43.330;21.924;2024-02-23T11:01:03;6.05;;;4.82;;
52816;SDS011;38687;43.330;21.924;2024-02-23T11:03:29;6.63;;;5.82;;
52816;SDS011;38687;43.330;21.924;2024-02-23T11:05:55;4.05;;;3.50;;
52816;SDS011;38687;43.330;21.924;2024-02-23T11:08:20;6.82;;;4.70;;
52816;SDS011;38687;43.330;21.924;2024-02-23T11:10:49;5.15;;;4.65;;
52816;SDS011;38687;43.330;21.924;2024-02-23T11:13:17;4.07;;;3.47;;
52816;SDS011;38687;43.330;21.924;2024-02-23T11:15:43;5.50;;;4.70;;
52816;SDS011;38687;43.330;21.924;2024-02-23T11:18:27;6.40;;;5.38;;
52816;SDS011;38687;43.330;21.924;2024-02-23T11:20:53;5.93;;;4.65;;
52816;SDS011;38687;43.330;21.924;2024-02-23T11:23:19;3.95;;;3.58;;
52816;SDS011;38687;43.330;21.924;2024-02-23T11:25:58;6.03;;;5.22;;
52816;SDS011;38687;43.330;21.924;2024-02-23T11:28:26;5.75;;;4.55;;
52816;SDS011;38687;43.330;21.924;2024-02-23T11:30:52;7.47;;;6.78;;
52816;SDS011;38687;43.330;21.924;2024-02-23T11:33:34;6.85;;;4.90;;
52816;SDS011;38687;43.330;21.924;2024-02-23T11:36:06;12.15;;;8.70;;
52816;SDS011;38687;43.330;21.924;2024-02-23T11:38:32;5.72;;;5.20;;
52816;SDS011;38687;43.330;21.924;2024-02-23T11:40:58;4.55;;;4.20;;
52816;SDS011;38687;43.330;21.924;2024-02-23T11:43:24;6.05;;;4.03;;
52816;SDS011;38687;43.330;21.924;2024-02-23T11:45:49;4.78;;;4.10;;
52816;SDS011;38687;43.330;21.924;2024-02-23T11:48:17;9.90;;;5.00;;
52816;SDS011;38687;43.330;21.924;2024-02-23T11:50:42;7.38;;;6.20;;
52816;SDS011;38687;43.330;21.924;2024-02-23T11:53:08;6.93;;;5.80;;
52816;SDS011;38687;43.330;21.924;2024-02-23T11:55:33;5.78;;;5.10;;
52816;SDS011;38687;43.330;21.924;2024-02-23T11:58:00;15.40;;;11.07;;
52816;SDS011;38687;43.330;21.924;2024-02-23T12:00:25;10.07;;;9.07;;
52816;SDS011;38687;43.330;21.924;2024-02-23T12:02:51;9.68;;;7.88;;
52816;SDS011;38687;43.330;21.924;2024-02-23T12:05:16;5.68;;;4.55;;
52816;SDS011;38687;43.330;21.924;2024-02-23T12:07:41;8.75;;;7.40;;
52816;SDS011;38687;43.330;21.924;2024-02-23T12:10:07;7.55;;;6.63;;
52816;SDS011;38687;43.330;21.924;2024-02-23T12:12:33;7.93;;;7.07;;
52816;SDS011;38687;43.330;21.924;2024-02-23T12:14:58;5.68;;;5.18;;
52816;SDS011;38687;43.330;21.924;2024-02-23T12:17:24;5.13;;;3.97;;
52816;SDS011;38687;43.330;21.924;2024-02-23T12:19:57;7.25;;;4.25;;
52816;SDS011;38687;43.330;21.924;2024-02-23T12:22:24;6.18;;;4.25;;
52816;SDS011;38687;43.330;21.924;2024-02-23T12:24:49;5.05;;;4.03;;
52816;SDS011;38687;43.330;21.924;2024-02-23T12:27:16;5.75;;;3.97;;
52816;SDS011;38687;43.330;21.924;2024-02-23T12:29:42;5.65;;;3.25;;
52816;SDS011;38687;43.330;21.924;2024-02-23T12:32:07;5.05;;;4.47;;
52816;SDS011;38687;43.330;21.924;2024-02-23T12:34:32;5.13;;;3.28;;
52816;SDS011;38687;43.330;21.924;2024-02-23T12:36:58;4.75;;;3.17;;
52816;SDS011;38687;43.330;21.924;2024-02-23T12:39:23;4.80;;;4.00;;
52816;SDS011;38687;43.330;21.924;2024-02-23T12:41:48;5.15;;;4.28;;
52816;SDS011;38687;43.330;21.924;2024-02-23T12:44:15;5.00;;;3.35;;
52816;SDS011;38687;43.330;21.924;2024-02-23T12:46:41;4.88;;;4.20;;
52816;SDS011;38687;43.330;21.924;2024-02-23T12:49:06;5.75;;;3.88;;
52816;SDS011;38687;43.330;21.924;2024-02-23T12:51:31;3.78;;;3.45;;
52816;SDS011;38687;43.330;21.924;2024-02-23T12:53:56;3.63;;;3.22;;
52816;SDS011;38687;43.330;21.924;2024-02-23T12:56:22;4.38;;;3.13;;
52816;SDS011;38687;43.330;21.924;2024-02-23T12:58:48;4.55;;;3.05;;
52816;SDS011;38687;43.330;21.924;2024-02-23T13:01:13;3.30;;;2.30;;
52816;SDS011;38687;43.330;21.924;2024-02-23T13:03:39;3.30;;;2.95;;
52816;SDS011;38687;43.330;21.924;2024-02-23T13:06:07;5.28;;;3.38;;
52816;SDS011;38687;43.330;21.924;2024-02-23T13:08:32;4.00;;;3.28;;
52816;SDS011;38687;43.330;21.924;2024-02-23T13:10:57;4.13;;;2.63;;
52816;SDS011;38687;43.330;21.924;2024-02-23T13:13:23;2.78;;;2.50;;
52816;SDS011;38687;43.330;21.924;2024-02-23T13:15:49;2.50;;;2.15;;
52816;SDS011;38687;43.330;21.924;2024-02-23T13:18:14;2.50;;;2.22;;
52816;SDS011;38687;43.330;21.924;2024-02-23T13:20:40;3.72;;;3.10;;
52816;SDS011;38687;43.330;21.924;2024-02-23T13:23:08;7.25;;;6.10;;
52816;SDS011;38687;43.330;21.924;2024-02-23T13:25:37;5.80;;;5.00;;
52816;SDS011;38687;43.330;21.924;2024-02-23T13:28:02;8.77;;;5.63;;
52816;SDS011;38687;43.330;21.924;2024-02-23T13:30:29;9.30;;;6.43;;
52816;SDS011;38687;43.330;21.924;2024-02-23T13:32:54;11.20;;;6.97;;
52816;SDS011;38687;43.330;21.924;2024-02-23T13:35:20;7.90;;;6.20;;
52816;SDS011;38687;43.330;21.924;2024-02-23T13:37:45;13.75;;;9.88;;
52816;SDS011;38687;43.330;21.924;2024-02-23T13:40:10;7.60;;;6.88;;
52816;SDS011;38687;43.330;21.924;2024-02-23T13:42:36;13.68;;;11.77;;
52816;SDS011;38687;43.330;21.924;2024-02-23T13:45:04;18.27;;;12.75;;
52816;SDS011;38687;43.330;21.924;2024-02-23T13:47:29;11.25;;;10.05;;
52816;SDS011;38687;43.330;21.924;2024-02-23T13:49:54;9.27;;;7.70;;
52816;SDS011;38687;43.330;21.924;2024-02-23T13:52:20;6.55;;;5.65;;
52816;SDS011;38687;43.330;21.924;2024-02-23T13:54:45;3.38;;;3.08;;
52816;SDS011;38687;43.330;21.924;2024-02-23T13:57:10;8.25;;;7.53;;
52816;SDS011;38687;43.330;21.924;2024-02-23T13:59:36;5.50;;;5.00;;
52816;SDS011;38687;43.330;21.924;2024-02-23T14:02:01;5.32;;;4.40;;
52816;SDS011;38687;43.330;21.924;2024-02-23T14:04:26;9.07;;;7.38;;
52816;SDS011;38687;43.330;21.924;2024-02-23T14:06:51;5.53;;;5.03;;
52816;SDS011;38687;43.330;21.924;2024-02-23T14:09:17;6.60;;;5.90;;
52816;SDS011;38687;43.330;21.924;2024-02-23T14:11:42;8.15;;;5.22;;
52816;SDS011;38687;43.330;21.924;2024-02-23T14:14:07;7.68;;;6.45;;